Time;durP1;ratioP1;P1;durP2;ratioP2;P2;SDS_P1;SDS_P2;PMS_P1;PMS_P2;Temp;Humidity;BMP_temperature;BMP_pressure;BME280_temperature;BME280_humidity;BME280_pressure;Samples;Min_cycle;Max_cycle;Signal;HPM_P1;HPM_P2
2024/02/05 00:01:52;;;;;;;0.00;0.00;;;28.10;40.50;;;;;;5008675;28;20204;-48
2024/02/05 00:04:29;;;;;;;0.00;0.00;;;28.20;40.50;;;;;;5008425;28;20227;-46
2024/02/05 00:07:00;;;;;;;0.00;0.00;;;28.20;40.30;;;;;;5008897;28;20227;-48
2024/02/05 00:09:31;;;;;;;0.00;0.00;;;28.20;40.20;;;;;;5007757;28;20207;-48
2024/02/05 00:12:04;;;;;;;0.00;0.00;;;28.30;40.20;;;;;;5004556;28;20217;-46
2024/02/05 00:14:35;;;;;;;0.00;0.00;;;28.30;40.70;;;;;;4992187;28;20259;-47
2024/02/05 00:17:06;;;;;;;0.00;0.00;;;28.30;40.10;;;;;;4992005;28;20283;-46
2024/02/05 00:19:37;;;;;;;0.00;0.00;;;28.40;40.10;;;;;;4992894;28;20205;-49
2024/02/05 00:22:07;;;;;;;0.00;0.00;;;28.40;40.00;;;;;;5004512;28;20668;-48
2024/02/05 00:24:38;;;;;;;0.00;0.00;;;28.50;39.90;;;;;;5011060;28;20193;-46
2024/02/05 00:27:12;;;;;;;0.00;0.00;;;28.50;39.90;;;;;;5010054;28;20222;-47
2024/02/05 00:29:42;;;;;;;0.00;0.00;;;28.50;39.70;;;;;;5011871;28;20201;-46
2024/02/05 00:32:13;;;;;;;0.00;0.00;;;28.60;39.50;;;;;;5011913;28;20197;-46
2024/02/05 00:34:44;;;;;;;0.00;0.00;;;28.60;39.40;;;;;;5011305;28;20287;-46
2024/02/05 00:37:15;;;;;;;0.00;0.00;;;28.70;39.40;;;;;;5011605;28;20231;-46
2024/02/05 00:39:45;;;;;;;0.00;0.00;;;28.70;39.40;;;;;;5011017;28;20193;-47
2024/02/05 00:42:18;;;;;;;0.00;0.00;;;28.80;39.40;;;;;;5011314;28;20203;-48
2024/02/05 00:44:49;;;;;;;0.00;0.00;;;28.80;39.40;;;;;;5011694;28;20575;-48
2024/02/05 00:47:19;;;;;;;0.00;0.00;;;28.90;39.20;;;;;;5005528;28;20585;-47
2024/02/05 00:49:50;;;;;;;0.00;0.00;;;28.90;39.20;;;;;;5007540;28;20259;-47
2024/02/05 00:52:21;;;;;;;0.00;0.00;;;29.00;39.30;;;;;;5007611;28;20193;-50
2024/02/05 00:54:51;;;;;;;0.00;0.00;;;29.00;39.20;;;;;;5008028;28;20673;-48
2024/02/05 00:57:26;;;;;;;0.00;0.00;;;29.10;39.30;;;;;;5011755;28;20597;-45
2024/02/05 00:59:57;;;;;;;0.00;0.00;;;29.10;39.10;;;;;;5010640;28;20202;-45
2024/02/05 01:02:27;;;;;;;0.00;0.00;;;29.20;39.00;;;;;;5011927;28;20200;-45
2024/02/05 01:04:58;;;;;;;0.00;0.00;;;29.20;38.90;;;;;;5011405;28;20196;-44
2024/02/05 01:07:29;;;;;;;0.00;0.00;;;29.20;38.80;;;;;;5011435;28;20223;-47
2024/02/05 01:10:01;;;;;;;0.00;0.00;;;29.20;38.70;;;;;;5011964;28;20733;-43
2024/02/05 01:12:33;;;;;;;0.00;0.00;;;29.30;38.70;;;;;;5011253;28;20223;-45
2024/02/05 01:15:04;;;;;;;0.00;0.00;;;29.30;38.60;;;;;;5009746;28;20616;-46
2024/02/05 01:17:35;;;;;;;0.00;0.00;;;29.40;38.90;;;;;;5010670;28;20558;-42
2024/02/05 01:20:10;;;;;;;0.00;0.00;;;29.40;38.60;;;;;;5010951;28;20205;-46
2024/02/05 01:22:41;;;;;;;0.00;0.00;;;29.40;38.60;;;;;;5011447;28;20280;-45
2024/02/05 01:25:12;;;;;;;0.00;0.00;;;29.50;38.70;;;;;;5011399;28;20589;-42
2024/02/05 01:27:45;;;;;;;0.00;0.00;;;29.50;38.60;;;;;;4998269;28;20225;-48
2024/02/05 01:30:18;;;;;;;0.00;0.00;;;29.50;38.60;;;;;;4990935;28;20212;-45
2024/02/05 01:32:51;;;;;;;0.00;0.00;;;29.60;38.70;;;;;;5007649;28;20263;-48
2024/02/05 01:35:22;;;;;;;0.00;0.00;;;29.60;38.60;;;;;;4994976;28;20206;-42
2024/02/05 01:37:53;;;;;;;0.00;0.00;;;29.60;38.70;;;;;;4991242;28;20219;-43
2024/02/05 01:40:24;;;;;;;0.00;0.00;;;29.60;38.70;;;;;;5010978;28;20211;-44
2024/02/05 01:42:57;;;;;;;0.00;0.00;;;29.70;38.80;;;;;;5010919;28;20265;-44
2024/02/05 01:45:28;;;;;;;0.00;0.00;;;29.70;38.90;;;;;;5010959;28;20196;-45
2024/02/05 01:47:59;;;;;;;0.00;0.00;;;29.70;38.90;;;;;;5011044;28;20239;-42
2024/02/05 01:50:30;;;;;;;0.00;0.00;;;29.70;38.90;;;;;;5011140;28;20253;-42
2024/02/05 01:53:02;;;;;;;0.00;0.00;;;29.80;39.10;;;;;;5010867;28;20240;-45
2024/02/05 01:55:34;;;;;;;0.00;0.00;;;29.80;39.10;;;;;;5010818;28;20204;-43
2024/02/05 01:58:07;;;;;;;0.00;0.00;;;29.80;39.10;;;;;;5010021;28;20228;-45
2024/02/05 02:00:38;;;;;;;0.00;0.00;;;29.80;39.10;;;;;;5010482;28;20240;-47
2024/02/05 02:03:09;;;;;;;0.00;0.00;;;29.80;39.10;;;;;;5010703;28;20212;-42
2024/02/05 02:05:40;;;;;;;0.00;0.00;;;29.80;39.20;;;;;;5010983;28;20689;-45
2024/02/05 02:08:13;;;;;;;0.00;0.00;;;29.80;39.10;;;;;;5007963;28;20224;-46
2024/02/05 02:10:46;;;;;;;0.00;0.00;;;29.90;39.20;;;;;;5010500;28;20200;-48
2024/02/05 02:13:18;;;;;;;0.00;0.00;;;29.90;39.20;;;;;;5008590;28;20740;-45
2024/02/05 02:15:50;;;;;;;0.00;0.00;;;30.00;39.20;;;;;;5010510;28;20271;-47
2024/02/05 02:18:23;;;;;;;0.00;0.00;;;30.00;39.20;;;;;;5005775;28;20217;-46
2024/02/05 02:20:57;;;;;;;0.00;0.00;;;30.10;39.30;;;;;;4990582;28;20304;-48
2024/02/05 02:23:33;;;;;;;0.00;0.00;;;30.10;39.20;;;;;;5002130;28;20199;-47
2024/02/05 02:26:04;;;;;;;0.00;0.00;;;30.10;39.20;;;;;;4999632;28;20213;-49
2024/02/05 02:28:35;;;;;;;0.00;0.00;;;30.20;39.20;;;;;;4990180;28;20227;-46
2024/02/05 02:31:07;;;;;;;0.00;0.00;;;30.20;39.20;;;;;;4993059;28;20208;-45
2024/02/05 02:33:44;;;;;;;0.00;0.00;;;30.30;39.20;;;;;;5009339;28;20223;-45
2024/02/05 02:36:19;;;;;;;0.00;0.00;;;30.30;39.20;;;;;;5009662;28;20225;-45
2024/02/05 02:38:54;;;;;;;0.00;0.00;;;30.40;39.20;;;;;;5009238;28;20224;-49
2024/02/05 02:41:28;;;;;;;0.00;0.00;;;30.40;39.20;;;;;;5009715;28;20219;-44
2024/02/05 02:44:01;;;;;;;0.00;0.00;;;30.40;39.10;;;;;;5009423;28;20216;-48
2024/02/05 02:46:33;;;;;;;0.00;0.00;;;30.50;39.20;;;;;;5008752;28;20578;-42
2024/02/05 02:49:04;;;;;;;0.00;0.00;;;30.50;39.00;;;;;;5008787;28;20267;-43
2024/02/05 02:51:35;;;;;;;0.00;0.00;;;30.50;38.90;;;;;;5009758;28;20204;-45
2024/02/05 02:54:08;;;;;;;0.00;0.00;;;30.60;39.00;;;;;;5010082;28;20270;-48
2024/02/05 02:56:40;;;;;;;0.00;0.00;;;30.60;39.00;;;;;;5009988;28;20654;-47
2024/02/05 02:59:11;;;;;;;0.00;0.00;;;30.60;38.80;;;;;;5009552;28;20704;-45
2024/02/05 03:01:42;;;;;;;0.00;0.00;;;30.70;38.80;;;;;;5009933;28;20275;-47
2024/02/05 03:04:13;;;;;;;0.00;0.00;;;30.70;38.60;;;;;;5009232;28;20763;-47
2024/02/05 03:06:44;;;;;;;0.00;0.00;;;30.80;38.60;;;;;;5010164;28;20205;-43
2024/02/05 03:09:17;;;;;;;0.00;0.00;;;30.80;38.50;;;;;;5009807;28;20661;-43
2024/02/05 03:11:48;;;;;;;0.00;0.00;;;30.80;38.40;;;;;;5009209;28;20601;-42
2024/02/05 03:14:22;;;;;;;0.00;0.00;;;30.90;38.40;;;;;;5009440;28;20735;-45
2024/02/05 03:16:53;;;;;;;0.00;0.00;;;30.90;38.30;;;;;;4994560;28;20705;-44
2024/02/05 03:19:24;;;;;;;0.00;0.00;;;30.90;38.30;;;;;;4989374;28;20509;-44
2024/02/05 03:21:56;;;;;;;0.00;0.00;;;31.00;38.30;;;;;;4990730;28;20259;-42
2024/02/05 03:24:28;;;;;;;0.00;0.00;;;31.00;38.30;;;;;;5007924;28;20307;-45
2024/02/05 03:26:59;;;;;;;0.00;0.00;;;31.10;38.30;;;;;;4989794;28;20303;-48
2024/02/05 03:29:30;;;;;;;0.00;0.00;;;31.10;38.30;;;;;;5002313;28;20247;-48
2024/02/05 03:32:01;;;;;;;0.00;0.00;;;31.20;38.30;;;;;;5009286;28;20208;-45
2024/02/05 03:34:32;;;;;;;0.00;0.00;;;31.20;38.20;;;;;;5009221;28;20286;-48
2024/02/05 03:37:03;;;;;;;0.00;0.00;;;31.20;38.20;;;;;;5008848;28;20345;-49
2024/02/05 03:39:36;;;;;;;0.00;0.00;;;31.30;38.20;;;;;;5002979;28;20264;-47
2024/02/05 03:42:06;;;;;;;0.00;0.00;;;31.30;38.30;;;;;;5008741;28;20196;-49
2024/02/05 03:44:38;;;;;;;0.00;0.00;;;31.30;38.20;;;;;;5008677;28;20205;-48
2024/02/05 03:47:09;;;;;;;0.00;0.00;;;31.40;38.10;;;;;;5008793;28;20225;-47
2024/02/05 03:49:40;;;;;;;0.00;0.00;;;31.40;38.10;;;;;;5007611;28;20239;-46
2024/02/05 03:52:11;;;;;;;0.00;0.00;;;31.40;38.10;;;;;;5008091;28;20192;-48
2024/02/05 03:54:46;;;;;;;0.00;0.00;;;31.40;38.10;;;;;;5008819;28;20550;-48
2024/02/05 03:57:17;;;;;;;0.00;0.00;;;31.50;38.20;;;;;;5008058;28;20251;-49
2024/02/05 03:59:48;;;;;;;0.00;0.00;;;31.50;38.10;;;;;;5008589;28;20327;-45
2024/02/05 04:02:19;;;;;;;0.00;0.00;;;31.50;38.00;;;;;;5008279;28;20200;-46
2024/02/05 04:04:49;;;;;;;0.00;0.00;;;31.60;37.90;;;;;;5008582;28;20231;-48
2024/02/05 04:07:20;;;;;;;0.00;0.00;;;31.70;38.00;;;;;;5008376;28;20224;-47
2024/02/05 04:09:53;;;;;;;0.00;0.00;;;31.70;38.00;;;;;;5008810;28;20200;-43
2024/02/05 04:12:24;;;;;;;0.00;0.00;;;31.70;37.90;;;;;;5008571;28;20735;-45
2024/02/05 04:14:55;;;;;;;0.00;0.00;;;31.80;37.90;;;;;;5002239;28;20984;-42
2024/02/05 04:17:27;;;;;;;0.00;0.00;;;31.80;37.90;;;;;;4988811;28;20237;-43
2024/02/05 04:19:58;;;;;;;0.00;0.00;;;31.80;37.70;;;;;;4987890;28;20213;-43
2024/02/05 04:22:29;;;;;;;0.00;0.00;;;31.90;37.70;;;;;;4988901;28;20263;-43
2024/02/05 04:25:01;;;;;;;0.00;0.00;;;32.00;37.60;;;;;;4988732;28;20197;-42
2024/02/05 04:27:32;;;;;;;0.00;0.00;;;32.00;37.50;;;;;;4990800;28;20217;-46
2024/02/05 04:30:02;;;;;;;0.00;0.00;;;32.00;37.40;;;;;;5006610;28;20441;-46
2024/02/05 04:32:33;;;;;;;0.00;0.00;;;32.00;37.30;;;;;;5007453;28;20444;-43
2024/02/05 04:35:04;;;;;;;0.00;0.00;;;32.10;37.20;;;;;;5005953;28;20233;-49
2024/02/05 04:37:35;;;;;;;0.00;0.00;;;32.10;37.10;;;;;;5007968;28;20232;-48
2024/02/05 04:40:09;;;;;;;0.00;0.00;;;32.10;36.90;;;;;;5008088;28;20572;-44
2024/02/05 04:43:05;;;;;;;0.00;0.00;;;32.20;36.90;;;;;;5007601;28;20247;-48
2024/02/05 04:45:37;;;;;;;0.00;0.00;;;32.20;36.80;;;;;;5007189;28;20204;-47
2024/02/05 04:48:08;;;;;;;0.00;0.00;;;32.30;36.90;;;;;;5007890;28;20220;-48
2024/02/05 04:50:39;;;;;;;0.00;0.00;;;32.30;36.60;;;;;;5007448;28;20204;-49
2024/02/05 04:53:10;;;;;;;0.00;0.00;;;32.30;36.50;;;;;;5008015;28;20204;-43
2024/02/05 04:55:43;;;;;;;0.00;0.00;;;32.30;36.50;;;;;;5008116;28;20209;-44
2024/02/05 04:58:14;;;;;;;0.00;0.00;;;32.30;36.30;;;;;;5007874;28;20231;-46
2024/02/05 05:00:45;;;;;;;0.00;0.00;;;32.30;36.30;;;;;;5006980;28;20738;-45
2024/02/05 05:03:18;;;;;;;0.00;0.00;;;32.40;36.30;;;;;;5007122;28;20200;-46
2024/02/05 05:05:49;;;;;;;0.00;0.00;;;32.40;36.20;;;;;;5008157;28;20386;-42
2024/02/05 05:08:20;;;;;;;0.00;0.00;;;32.40;36.10;;;;;;5007844;28;20266;-47
2024/02/05 05:10:53;;;;;;;0.00;0.00;;;32.40;36.10;;;;;;5007778;28;20681;-48
2024/02/05 05:13:24;;;;;;;0.00;0.00;;;32.40;36.00;;;;;;5007970;28;20236;-46
2024/02/05 05:15:55;;;;;;;0.00;0.00;;;32.40;35.80;;;;;;5007419;28;20286;-50
2024/02/05 05:18:26;;;;;;;0.00;0.00;;;32.40;35.70;;;;;;5005478;28;20685;-48
2024/02/05 05:20:57;;;;;;;0.00;0.00;;;32.40;35.80;;;;;;5006065;28;20224;-45
2024/02/05 05:23:28;;;;;;;0.00;0.00;;;32.50;35.70;;;;;;5007778;28;20251;-47
2024/02/05 05:26:00;;;;;;;0.00;0.00;;;32.50;35.70;;;;;;5006905;28;20251;-48
2024/02/05 05:28:32;;;;;;;0.00;0.00;;;32.50;35.70;;;;;;5008070;28;20314;-48
2024/02/05 05:31:03;;;;;;;0.00;0.00;;;32.60;35.50;;;;;;5006435;28;20200;-45
2024/02/05 05:33:34;;;;;;;0.00;0.00;;;32.60;35.40;;;;;;5007923;28;20263;-47
2024/02/05 05:36:05;;;;;;;0.00;0.00;;;32.60;35.50;;;;;;5008059;28;20290;-49
2024/02/05 05:38:36;;;;;;;0.00;0.00;;;32.60;35.50;;;;;;4987545;28;20240;-49
2024/02/05 05:41:09;;;;;;;0.00;0.00;;;32.60;35.40;;;;;;5000643;28;20205;-48
2024/02/05 05:43:40;;;;;;;0.00;0.00;;;32.60;35.20;;;;;;5011183;28;20254;-48
2024/02/05 05:46:11;;;;;;;0.00;0.00;;;32.60;35.10;;;;;;5011643;28;20251;-46
2024/02/05 05:48:41;;;;;;;0.00;0.00;;;32.60;34.90;;;;;;5010013;28;20247;-46
2024/02/05 05:51:13;;;;;;;0.00;0.00;;;32.60;35.00;;;;;;5010145;28;20266;-42
2024/02/05 05:53:44;;;;;;;0.00;0.00;;;32.60;35.10;;;;;;5010803;28;20783;-44
2024/02/05 05:56:17;;;;;;;0.00;0.00;;;32.60;35.20;;;;;;5010015;28;20212;-46
2024/02/05 05:58:52;;;;;;;0.00;0.00;;;32.60;35.10;;;;;;5010832;28;20333;-46
2024/02/05 06:01:23;;;;;;;0.00;0.00;;;32.60;34.90;;;;;;5010179;28;20302;-50
2024/02/05 06:03:54;;;;;;;0.00;0.00;;;32.60;34.80;;;;;;5010056;28;20196;-51
2024/02/05 06:06:25;;;;;;;0.00;0.00;;;32.60;34.80;;;;;;5010654;28;20296;-46
2024/02/05 06:08:55;;;;;;;0.00;0.00;;;32.60;34.80;;;;;;5010723;28;20290;-47
2024/02/05 06:11:28;;;;;;;0.00;0.00;;;32.60;34.80;;;;;;5010250;28;20208;-49
2024/02/05 06:13:59;;;;;;;0.00;0.00;;;32.60;34.80;;;;;;5010138;28;20282;-48
2024/02/05 06:16:30;;;;;;;0.00;0.00;;;32.60;35.00;;;;;;5009888;28;20250;-44
2024/02/05 06:19:01;;;;;;;0.00;0.00;;;32.60;35.00;;;;;;5010891;28;20232;-44
2024/02/05 06:21:32;;;;;;;0.00;0.00;;;32.60;35.10;;;;;;5009886;28;20208;-45
2024/02/05 06:24:03;;;;;;;0.00;0.00;;;32.60;35.00;;;;;;5010313;28;20695;-46
2024/02/05 06:26:36;;;;;;;0.00;0.00;;;32.60;34.60;;;;;;5009827;28;20200;-48
2024/02/05 06:29:07;;;;;;;0.00;0.00;;;32.50;34.20;;;;;;4997708;28;20338;-48
2024/02/05 06:31:38;;;;;;;0.00;0.00;;;32.50;34.30;;;;;;5010235;28;20208;-48
2024/02/05 06:34:09;;;;;;;0.00;0.00;;;32.50;34.10;;;;;;5009473;28;20201;-47
2024/02/05 06:36:39;;;;;;;0.00;0.00;;;32.40;33.90;;;;;;5009725;28;20231;-44
2024/02/05 06:39:13;;;;;;;0.00;0.00;;;32.40;33.90;;;;;;5008927;28;20224;-45
2024/02/05 06:41:46;;;;;;;0.00;0.00;;;32.40;33.80;;;;;;4999545;28;20291;-45
2024/02/05 06:44:17;;;;;;;0.00;0.00;;;32.40;33.90;;;;;;5007009;28;20200;-46
2024/02/05 06:46:48;;;;;;;0.00;0.00;;;32.40;33.90;;;;;;5008707;28;20200;-45
2024/02/05 06:49:19;;;;;;;0.00;0.00;;;32.40;33.80;;;;;;5009348;28;20274;-45
2024/02/05 06:51:50;;;;;;;0.00;0.00;;;32.40;33.90;;;;;;5008724;28;20200;-45
2024/02/05 06:54:20;;;;;;;0.00;0.00;;;32.40;33.90;;;;;;4989656;28;20687;-47
2024/02/05 06:56:53;;;;;;;0.00;0.00;;;32.40;33.90;;;;;;4989782;28;20288;-46
2024/02/05 06:59:24;;;;;;;0.00;0.00;;;32.40;34.00;;;;;;4990607;28;20201;-48
2024/02/05 07:01:55;;;;;;;0.00;0.00;;;32.40;34.10;;;;;;4989906;28;20205;-49
2024/02/05 07:04:26;;;;;;;0.00;0.00;;;32.30;34.20;;;;;;4994016;28;20607;-48
2024/02/05 07:06:57;;;;;;;0.00;0.00;;;32.30;34.00;;;;;;5009315;28;20307;-42
2024/02/05 07:09:28;;;;;;;0.00;0.00;;;32.30;34.00;;;;;;5009537;28;20258;-45
2024/02/05 07:12:01;;;;;;;0.00;0.00;;;32.30;34.10;;;;;;5009820;28;20199;-45
2024/02/05 07:14:32;;;;;;;0.00;0.00;;;32.30;34.10;;;;;;5008954;28;20236;-45
2024/02/05 07:17:03;;;;;;;0.00;0.00;;;32.20;34.00;;;;;;5009071;28;20271;-46
2024/02/05 07:19:34;;;;;;;0.00;0.00;;;32.20;33.80;;;;;;5008231;28;20270;-43
2024/02/05 07:22:05;;;;;;;0.00;0.00;;;32.20;33.90;;;;;;5004992;28;20196;-47
2024/02/05 07:24:35;;;;;;;0.00;0.00;;;32.20;33.80;;;;;;4989165;28;20240;-45
2024/02/05 07:27:08;;;;;;;0.00;0.00;;;32.20;33.80;;;;;;4989872;28;20311;-45
2024/02/05 07:29:42;;;;;;;0.00;0.00;;;32.20;33.80;;;;;;4992228;28;20205;-49
2024/02/05 07:32:13;;;;;;;0.00;0.00;;;32.10;33.80;;;;;;5009201;28;20201;-49
2024/02/05 07:34:43;;;;;;;0.00;0.00;;;32.10;33.70;;;;;;5007455;28;20317;-47
2024/02/05 07:37:14;;;;;;;0.00;0.00;;;32.10;33.70;;;;;;5006666;28;20228;-48
2024/02/05 07:39:46;;;;;;;0.00;0.00;;;32.10;33.70;;;;;;4990588;28;20251;-47
2024/02/05 07:42:19;;;;;;;0.00;0.00;;;32.00;33.60;;;;;;4993187;28;20658;-49
2024/02/05 07:44:50;;;;;;;0.00;0.00;;;32.00;33.60;;;;;;5012604;28;20613;-47
2024/02/05 07:47:21;;;;;;;0.00;0.00;;;32.00;33.60;;;;;;5004847;28;20310;-47
2024/02/05 07:49:51;;;;;;;0.00;0.00;;;32.00;33.50;;;;;;4989031;28;20255;-47
2024/02/05 07:52:23;;;;;;;0.00;0.00;;;32.00;33.50;;;;;;4997550;28;20251;-47
2024/02/05 07:54:54;;;;;;;0.00;0.00;;;32.00;33.50;;;;;;5008843;28;20553;-47
2024/02/05 07:57:26;;;;;;;0.00;0.00;;;31.90;33.40;;;;;;5008508;28;20220;-47
2024/02/05 07:59:57;;;;;;;0.00;0.00;;;31.90;33.40;;;;;;5008815;28;20314;-46
2024/02/05 08:02:28;;;;;;;0.00;0.00;;;31.90;33.50;;;;;;5007652;28;20297;-45
2024/02/05 08:04:59;;;;;;;0.00;0.00;;;31.90;33.50;;;;;;5007561;28;20251;-46
2024/02/05 08:07:30;;;;;;;0.00;0.00;;;31.90;33.50;;;;;;5007927;28;20216;-46
2024/02/05 08:10:01;;;;;;;0.00;0.00;;;31.90;33.40;;;;;;5008096;28;20231;-47
2024/02/05 08:12:34;;;;;;;0.00;0.00;;;31.80;33.40;;;;;;5008072;28;20652;-46
2024/02/05 08:15:05;;;;;;;0.00;0.00;;;31.80;33.30;;;;;;5008150;28;20204;-48
2024/02/05 08:17:36;;;;;;;0.00;0.00;;;31.80;33.40;;;;;;5007616;28;20307;-47
2024/02/05 08:20:08;;;;;;;0.00;0.00;;;31.70;33.30;;;;;;5007947;28;20607;-44
2024/02/05 08:22:39;;;;;;;0.00;0.00;;;31.70;33.30;;;;;;5008322;28;20223;-46
2024/02/05 08:25:10;;;;;;;0.00;0.00;;;31.70;33.30;;;;;;5007421;28;20259;-48
2024/02/05 08:27:43;;;;;;;0.00;0.00;;;31.70;33.40;;;;;;5007378;28;20264;-45
2024/02/05 08:30:15;;;;;;;0.00;0.00;;;31.70;33.30;;;;;;5006823;28;20240;-48
2024/02/05 08:32:46;;;;;;;0.00;0.00;;;31.70;33.30;;;;;;5008157;28;20282;-45
2024/02/05 08:35:17;;;;;;;0.00;0.00;;;31.60;33.30;;;;;;5005378;28;20201;-44
2024/02/05 08:37:47;;;;;;;0.00;0.00;;;31.60;33.30;;;;;;4987825;28;20229;-48
2024/02/05 08:40:18;;;;;;;0.00;0.00;;;31.60;33.30;;;;;;4995395;28;20341;-48
2024/02/05 08:42:51;;;;;;;0.00;0.00;;;31.50;33.10;;;;;;5008017;28;20262;-46
2024/02/05 08:45:23;;;;;;;0.00;0.00;;;31.50;33.30;;;;;;5007969;28;20208;-48
2024/02/05 08:47:55;;;;;;;0.00;0.00;;;31.50;33.10;;;;;;5006678;28;20224;-49
2024/02/05 08:50:31;;;;;;;0.00;0.00;;;31.50;33.10;;;;;;5005973;28;20196;-46
2024/02/05 08:53:02;;;;;;;0.00;0.00;;;31.50;33.10;;;;;;5004266;28;20690;-50
2024/02/05 08:55:33;;;;;;;0.00;0.00;;;31.40;33.10;;;;;;4996021;28;20200;-44
2024/02/05 08:58:05;;;;;;;0.00;0.00;;;31.40;33.20;;;;;;5002878;28;20282;-50
2024/02/05 09:00:36;;;;;;;0.00;0.00;;;31.40;33.20;;;;;;5005629;28;20200;-48
2024/02/05 09:03:07;;;;;;;0.00;0.00;;;31.40;33.20;;;;;;5006428;28;21379;-47
2024/02/05 09:05:38;;;;;;;0.00;0.00;;;31.30;33.20;;;;;;5004316;28;20713;-50
2024/02/05 09:08:10;;;;;;;0.00;0.00;;;31.30;33.20;;;;;;4987904;28;20223;-48
2024/02/05 09:10:40;;;;;;;0.00;0.00;;;31.20;33.20;;;;;;5006125;28;20197;-49
2024/02/05 09:13:13;;;;;;;0.00;0.00;;;31.20;33.20;;;;;;5006634;28;20533;-46
2024/02/05 09:15:44;;;;;;;0.00;0.00;;;31.20;33.30;;;;;;5006840;28;20196;-41
2024/02/05 09:18:15;;;;;;;0.00;0.00;;;31.10;33.30;;;;;;5008191;28;20660;-46
2024/02/05 09:20:46;;;;;;;0.00;0.00;;;31.10;33.40;;;;;;4993699;28;20224;-49
2024/02/05 09:23:18;;;;;;;0.00;0.00;;;31.10;33.50;;;;;;4989636;28;20197;-48
2024/02/05 09:25:48;;;;;;;0.00;0.00;;;31.10;33.60;;;;;;5004830;28;20228;-42
2024/02/05 09:28:21;;;;;;;0.00;0.00;;;31.10;33.60;;;;;;5009977;28;20270;-43
2024/02/05 09:30:53;;;;;;;0.00;0.00;;;31.00;33.60;;;;;;5007561;28;20257;-42
2024/02/05 09:33:24;;;;;;;0.00;0.00;;;31.00;33.60;;;;;;4990411;28;20209;-45
2024/02/05 09:35:55;;;;;;;0.00;0.00;;;31.00;33.60;;;;;;4996194;28;20407;-47
2024/02/05 09:38:26;;;;;;;0.00;0.00;;;30.90;33.60;;;;;;4996233;28;20283;-48
2024/02/05 09:41:04;;;;;;;0.00;0.00;;;30.90;33.60;;;;;;5005010;28;20610;-48
2024/02/05 09:43:37;;;;;;;0.00;0.00;;;30.90;33.70;;;;;;4990944;28;20205;-47
2024/02/05 09:46:08;;;;;;;0.00;0.00;;;30.90;33.70;;;;;;4990136;28;20232;-42
2024/02/05 09:48:41;;;;;;;0.00;0.00;;;30.90;33.70;;;;;;4990779;28;20284;-43
2024/02/05 09:51:12;;;;;;;0.00;0.00;;;30.80;33.60;;;;;;4992919;28;20783;-45
2024/02/05 09:53:44;;;;;;;0.00;0.00;;;30.80;33.60;;;;;;4997788;28;20647;-48
2024/02/05 09:56:17;;;;;;;0.00;0.00;;;30.80;33.70;;;;;;5008763;28;20807;-49
2024/02/05 09:58:50;;;;;;;0.00;0.00;;;30.80;33.70;;;;;;5009067;28;20232;-46
2024/02/05 10:01:22;;;;;;;0.00;0.00;;;30.70;33.60;;;;;;4999346;28;20252;-46
2024/02/05 10:03:54;;;;;;;0.00;0.00;;;30.70;33.60;;;;;;4990159;28;20267;-47
2024/02/05 10:06:29;;;;;;;0.00;0.00;;;30.70;33.50;;;;;;5006243;28;20291;-48
2024/02/05 10:09:04;;;;;;;0.00;0.00;;;30.60;33.50;;;;;;5010422;28;20216;-44
2024/02/05 10:11:36;;;;;;;0.00;0.00;;;30.60;33.50;;;;;;5009989;28;20203;-46
2024/02/05 10:14:09;;;;;;;0.00;0.00;;;30.60;33.50;;;;;;5001532;28;20284;-48
2024/02/05 10:16:42;;;;;;;0.00;0.00;;;30.60;33.50;;;;;;4990140;28;20232;-51
2024/02/05 10:19:13;;;;;;;0.00;0.00;;;30.50;33.50;;;;;;4995119;28;20593;-48
2024/02/05 10:21:45;;;;;;;0.00;0.00;;;30.50;33.50;;;;;;5009615;28;20200;-43
2024/02/05 10:24:17;;;;;;;0.00;0.00;;;30.50;33.50;;;;;;5010329;28;20335;-42
2024/02/05 10:26:48;;;;;;;0.00;0.00;;;30.40;33.50;;;;;;5009786;28;20708;-44
2024/02/05 10:29:25;;;;;;;0.00;0.00;;;30.40;33.50;;;;;;5009068;28;20231;-46
2024/02/05 10:31:58;;;;;;;0.00;0.00;;;30.40;33.50;;;;;;5008619;28;20243;-42
2024/02/05 10:34:29;;;;;;;0.00;0.00;;;30.40;33.60;;;;;;4995526;28;20209;-48
2024/02/05 10:37:08;;;;;;;0.00;0.00;;;30.40;33.60;;;;;;4989993;28;20280;-47
2024/02/05 10:39:39;;;;;;;0.00;0.00;;;30.30;33.60;;;;;;4990932;28;20292;-45
2024/02/05 10:42:10;;;;;;;0.00;0.00;;;30.30;33.70;;;;;;5009456;28;20247;-48
2024/02/05 10:44:43;;;;;;;0.00;0.00;;;30.30;33.70;;;;;;5010096;28;20205;-48
2024/02/05 10:47:16;;;;;;;0.00;0.00;;;30.20;34.30;;;;;;5008919;28;20767;-46
2024/02/05 10:49:47;;;;;;;0.00;0.00;;;30.20;33.70;;;;;;5010082;28;20644;-45
2024/02/05 10:52:19;;;;;;;0.00;0.00;;;30.20;33.80;;;;;;5010010;28;20247;-48
2024/02/05 10:54:51;;;;;;;0.00;0.00;;;30.20;33.80;;;;;;5008939;28;20600;-49
2024/02/05 10:57:23;;;;;;;0.00;0.00;;;30.20;33.80;;;;;;5009499;28;20224;-47
2024/02/05 10:59:56;;;;;;;0.00;0.00;;;30.20;33.80;;;;;;5008983;28;20228;-45
2024/02/05 11:02:28;;;;;;;0.00;0.00;;;30.10;33.80;;;;;;5009251;28;20303;-48
2024/02/05 11:05:07;;;;;;;0.00;0.00;;;30.10;33.80;;;;;;5008614;28;20659;-48
2024/02/05 11:07:42;;;;;;;0.00;0.00;;;30.10;33.80;;;;;;5008929;28;20248;-49
2024/02/05 11:10:14;;;;;;;0.00;0.00;;;30.10;33.80;;;;;;5009441;28;20722;-47
2024/02/05 11:12:48;;;;;;;0.00;0.00;;;30.10;33.30;;;;;;5009867;28;20818;-49
2024/02/05 11:15:22;;;;;;;0.00;0.00;;;30.00;32.40;;;;;;5009439;28;20263;-49
2024/02/05 11:17:55;;;;;;;0.00;0.00;;;30.00;32.10;;;;;;4994538;28;20757;-46
2024/02/05 11:20:29;;;;;;;0.00;0.00;;;30.00;32.20;;;;;;4989262;28;20628;-48
2024/02/05 11:23:03;;;;;;;0.00;0.00;;;29.90;32.20;;;;;;4989318;28;20202;-49
2024/02/05 11:25:34;;;;;;;0.00;0.00;;;29.90;32.30;;;;;;4989160;28;20275;-45
2024/02/05 11:28:10;;;;;;;0.00;0.00;;;29.80;32.40;;;;;;4997513;28;20666;-46
2024/02/05 11:30:45;;;;;;;0.00;0.00;;;29.80;32.60;;;;;;5009504;28;20204;-45
2024/02/05 11:33:26;;;;;;;0.00;0.00;;;29.80;32.60;;;;;;5006999;28;20250;-46
2024/02/05 11:35:58;;;;;;;0.00;0.00;;;29.80;32.80;;;;;;5009417;28;20204;-49
2024/02/05 11:38:29;;;;;;;0.00;0.00;;;29.70;32.80;;;;;;5009016;28;20224;-45
2024/02/05 11:41:03;;;;;;;0.00;0.00;;;29.70;32.80;;;;;;5008473;28;20235;-48
2024/02/05 11:43:34;;;;;;;0.00;0.00;;;29.70;32.90;;;;;;5009501;28;20734;-47
2024/02/05 11:46:08;;;;;;;0.00;0.00;;;29.70;33.00;;;;;;5009248;28;20306;-48
2024/02/05 11:48:40;;;;;;;0.00;0.00;;;29.70;33.10;;;;;;4991962;28;20271;-47
2024/02/05 11:51:15;;;;;;;0.00;0.00;;;29.60;33.00;;;;;;4988909;28;20501;-46
2024/02/05 11:53:50;;;;;;;0.00;0.00;;;29.60;33.20;;;;;;4993807;28;20200;-49
2024/02/05 11:56:20;;;;;;;0.00;0.00;;;29.60;33.20;;;;;;5008868;28;20266;-44
2024/02/05 11:58:51;;;;;;;0.00;0.00;;;29.60;33.20;;;;;;5008356;28;20685;-51
2024/02/05 12:01:25;;;;;;;0.00;0.00;;;29.60;33.30;;;;;;5008148;28;20664;-45
2024/02/05 12:03:57;;;;;;;0.00;0.00;;;29.50;33.30;;;;;;5009289;28;20251;-49
2024/02/05 12:06:28;;;;;;;0.00;0.00;;;29.50;33.30;;;;;;5009033;28;20914;-46
2024/02/05 12:09:00;;;;;;;0.00;0.00;;;29.50;33.50;;;;;;5008062;28;20275;-46
2024/02/05 12:11:31;;;;;;;0.00;0.00;;;29.50;33.80;;;;;;5008435;28;20722;-48
2024/02/05 12:14:02;;;;;;;0.00;0.00;;;29.50;33.90;;;;;;5007814;28;20197;-47
2024/02/05 12:16:35;;;;;;;0.00;0.00;;;29.50;34.00;;;;;;5007054;28;20362;-46
2024/02/05 12:19:08;;;;;;;0.00;0.00;;;29.40;34.00;;;;;;5007513;28;20225;-45
2024/02/05 12:21:39;;;;;;;0.00;0.00;;;29.40;34.00;;;;;;5008226;28;20201;-49
2024/02/05 12:24:10;;;;;;;0.00;0.00;;;29.40;34.00;;;;;;5009931;28;20197;-49
2024/02/05 12:26:41;;;;;;;0.00;0.00;;;29.40;34.00;;;;;;5011312;28;20291;-41
2024/02/05 12:29:12;;;;;;;0.00;0.00;;;29.30;33.90;;;;;;5010940;28;20653;-48
2024/02/05 12:31:45;;;;;;;0.00;0.00;;;29.40;34.00;;;;;;5008530;28;20193;-47
2024/02/05 12:34:16;;;;;;;0.00;0.00;;;29.40;33.90;;;;;;5011178;28;20707;-48
2024/02/05 12:36:47;;;;;;;0.00;0.00;;;29.40;33.90;;;;;;5008276;28;20197;-47
2024/02/05 12:39:20;;;;;;;0.00;0.00;;;29.40;33.90;;;;;;5009657;28;20549;-47
2024/02/05 12:41:51;;;;;;;0.00;0.00;;;29.30;33.80;;;;;;5001675;28;20203;-47
2024/02/05 12:44:22;;;;;;;0.00;0.00;;;29.30;33.80;;;;;;5002508;28;20231;-46
2024/02/05 12:46:55;;;;;;;0.00;0.00;;;29.30;33.80;;;;;;5001815;28;20205;-47
2024/02/05 12:49:27;;;;;;;0.00;0.00;;;29.30;33.70;;;;;;5009017;28;20752;-47
2024/02/05 12:51:58;;;;;;;0.00;0.00;;;29.30;33.60;;;;;;5012324;28;20197;-47
2024/02/05 12:54:31;;;;;;;0.00;0.00;;;29.30;33.60;;;;;;5015315;28;20232;-46
2024/02/05 12:57:02;;;;;;;0.00;0.00;;;29.30;33.50;;;;;;5014999;28;20614;-46
2024/02/05 12:59:33;;;;;;;0.00;0.00;;;29.20;33.40;;;;;;5015319;28;20319;-49
2024/02/05 13:02:07;;;;;;;0.00;0.00;;;29.20;33.30;;;;;;5012830;28;20185;-49
2024/02/05 13:04:39;;;;;;;0.00;0.00;;;29.20;33.30;;;;;;5014329;28;20236;-49
2024/02/05 13:07:10;;;;;;;0.00;0.00;;;29.20;33.20;;;;;;5015220;28;20209;-50
2024/02/05 13:09:41;;;;;;;0.00;0.00;;;29.10;33.10;;;;;;5014879;28;20259;-47
2024/02/05 13:12:12;;;;;;;0.00;0.00;;;29.10;33.00;;;;;;5005609;28;20724;-47